Pagrindinis puslapis
METAR-TAF:

METAR-TAF

Oro uostai :

Abumusa, Iranas

platuma: 25-52-33N, ilguma: 055-02-01E, Aukštis: 7 m

Dabartinis oras

Ataskaita buvo paskelbta 15 minutes, ne 04:00 UTC
Vėjas 4 kt iš Vakarų/Pietvakarių
Temperatūra 34°C
Drėgmė 75%
Slėgis 998 hPa
Matomumas: 4000 m
Mažai debesys ne aukštis 2000 ft
migla

METAR: OIBA 010400Z 25004KT 4000 HZ FEW020 34/29 Q0998

Laikas: 08:45 (04:15 UTC)


TAF: trūkstamas

Orai ataskaitas ir orų prognozės (METAR, TAF).

turimą stotys yra geltonos ir raudonos taškus žemėlapyje.

Perkelti pele per norėdami pamatyti stoties vardą.

Tada spustelėkite, norėdami matyti oro stebėjimo ir prognozės.

Norėdami pakeisti žemėlapį: spustelėkite ant žalios mygtukų su juodo kryžiaus žemyn,; žalią mygtuką su brūkšneliu, jei norite nutolinti; arba žalių rodyklių gretimoms žemėlapius.


METAR-TAF: